UNNT Airport Information

Runway Information
Runway 07 Length 11801 ft width 197 ft
Elevation 365 ft Threshold 0 ft Heading 81
Runway 25 Length 11801 ft Width 197 ft
Elevation 363 ft Threshold 0 ft Heading 261
Runway 16 Length 11818 ft width 148 ft
Elevation 362 ft Threshold 0 ft Heading 170
Runway 34 Length 11818 ft Width 148 ft
Elevation 368 ft Threshold 0 ft Heading 350
Airport Frequencies
Type APP Name NOVOSIBIRS Frequency 127.5 MHZ
Type ATIS Name NOVOSIBIRS Frequency 127.4 MHZ
Type GND Name NOVOSIBIRS Frequency 121.7 MHZ
Type PMSV Name NOVOSIBIRS Frequency 128.3 MHZ
Type RDR Name NOVOSIBIRS Frequency 122 MHZ
Type TWR Name NOVOSIBIRS Frequency 118.5 MHZ
Airport Navaids
Type NDB Name Tolmachevo Frequency 310 KHZ
Type VOR-DME Name Novosibirsk Frequency 113300 KHZ
Type NDB Name Tolmachevo Frequency 310 KHZ
Airport Weather Information & NOTAM
ADDS - METARS form results

(0729 UTC 20 May 2022)
Data provider http://aviationweather.gov/metar/data/
 
METAR text: UNNT 200700Z 24007MPS 9999 SCT040 21/02 Q1012 R25/090070 R34/////// NOSIG RMK QFE749/0999
Conditions at: UNNT (TOLMACHEVO , RU) observed 0700 UTC 20 May 2022
Temperature: 21.0°C (70°F)
Dewpoint: 2.0°C (36°F) [RH = 28%]
Pressure (altimeter): 29.88 inches Hg (1012.0 mb)
Winds: from the WSW (240 degrees) at 16 MPH (14 knots; 7.2 m/s)
Visibility: 6 or more miles (10+ km)
Ceiling: at least 12,000 feet AGL
Clouds: scattered clouds at 4000 feet AGL
Weather: no significant weather observed at this time

METAR text: UNNT 200630Z 22008MPS 9999 SCT040 22/01 Q1012 R25/090070 R34/////// NOSIG RMK QFE749/0999
Conditions at: UNNT (TOLMACHEVO , RU) observed 0630 UTC 20 May 2022
Temperature: 22.0°C (72°F)
Dewpoint: 1.0°C (34°F) [RH = 25%]
Pressure (altimeter): 29.88 inches Hg (1012.0 mb)
Winds: from the SW (220 degrees) at 18 MPH (16 knots; 8.2 m/s)
Visibility: 6 or more miles (10+ km)
Ceiling: at least 12,000 feet AGL
Clouds: scattered clouds at 4000 feet AGL
Weather: no significant weather observed at this time

Forecast for: UNNT (TOLMACHEVO , RU)
Text: TAF UNNT 200500Z 2006/2106 24009G18MPS 9999 SCT040CB
Forecast period: 0600 to 1400 UTC 20 May 2022
Forecast type: FROM: standard forecast or significant change
Winds: from the WSW (240 degrees) at 20 MPH (17 knots; 8.7 m/s)
gusting to 40 MPH (35 knots; 18.0 m/s)
Visibility: 6 or more miles (10+ km)
Ceiling: at least 12,000 feet AGL
Clouds: scattered clouds at 4000 feet AGL
Weather: no significant weather forecast for this period
Text: BECMG 2014/2017 22003G08MPS
Forecast period: 1400 UTC 20 May 2022 to 0600 UTC 21 May 2022
Forecast type: BECOMING: Conditions expected to become as follows by 1700 UTC 20 May 2022
Winds: from the SW (220 degrees) at 7 MPH (6 knots; 3.1 m/s)
gusting to 18 MPH (16 knots; 8.2 m/s)
Visibility: 6 or more miles (10+ km)
Ceiling: at least 12,000 feet AGL
Clouds: scattered clouds at 4000 feet AGL
Weather: no significant weather forecast for this period